Pagrindinis puslapis
METAR-TAF:

METAR-TAF

Oro uostai :

Port Heiden, Aliaska, Jungtinės Amerikos Valstijos

platuma: 56-57N, ilguma: 158-38W, Aukštis: 29 m

Dabartinis oras

Ataskaita buvo paskelbta 50 minutes, ne 16:56 UTC
Vėjas 7 kt iš Šiaurės Rytų, svyruoja nuo Šiaurės ir Rytų
Temperatūra 8°C
Drėgmė 61%
Slėgis 1011 hPa
Matomumas: 16.1 km
Išsisklaidę debesys ne aukštis 3500 ft
Apsiniaukę ne aukštis 7000 ft

METAR: PAPH 221656Z AUTO 04007KT 360V090 10SM SCT035 OVC070 08/01 A2986 RMK AO2 SLP112 T00780011

Laikas: 09:46 (17:46 UTC)


TAF: trūkstamas

Orai ataskaitas ir orų prognozės (METAR, TAF).

turimą stotys yra geltonos ir raudonos taškus žemėlapyje.

Perkelti pele per norėdami pamatyti stoties vardą.

Tada spustelėkite, norėdami matyti oro stebėjimo ir prognozės.

Norėdami pakeisti žemėlapį: spustelėkite ant žalios mygtukų su juodo kryžiaus žemyn,; žalią mygtuką su brūkšneliu, jei norite nutolinti; arba žalių rodyklių gretimoms žemėlapius.


METAR-TAF: